EZY106U EGBB-EGPF
Flight info
| Callsign | EZY106U |
|---|---|
| Flight time | 0h 48m |
| Altitude | 28000 |
| Route | LUVUM DCT TNT N57 POL/N0385F240 N601 RIBEL DCT ASLIB |
| Aircraft | A320/M-SDE3FGHIRWY/LB1 |
Departure
| Time | 2026-05-05 17:28 |
|---|---|
| Airport | Birmingham Airport (EGBB) |
Arrival
| Time | 2026-05-05 18:16 |
|---|---|
| Airport | Glasgow Airport (EGPF) |
| Time | Latitude | Longitude | Altitude | Speed | Heading |
|---|---|---|---|---|---|
| 2026-05-05 16:52 | 52.45451 | -1.73417 | 324 ft | 0 kts | 147° |
| 2026-05-05 17:17 | 52.45461 | -1.73429 | 322 ft | 2 kts | 150° |
| 2026-05-05 17:17 | 52.45476 | -1.73443 | 320 ft | 2 kts | 153° |
| 2026-05-05 17:17 | 52.45490 | -1.73455 | 322 ft | 2 kts | 156° |
| 2026-05-05 17:17 | 52.45505 | -1.73464 | 323 ft | 2 kts | 170° |
| 2026-05-05 17:18 | 52.45522 | -1.73465 | 322 ft | 2 kts | 214° |
| 2026-05-05 17:18 | 52.45531 | -1.73452 | 323 ft | 1 kts | 239° |
| 2026-05-05 17:18 | 52.45531 | -1.73451 | 323 ft | 0 kts | 240° |
| 2026-05-05 17:19 | 52.45531 | -1.73453 | 323 ft | 0 kts | 240° |
| 2026-05-05 17:20 | 52.45528 | -1.73460 | 323 ft | 1 kts | 240° |
| 2026-05-05 17:20 | 52.45521 | -1.73477 | 321 ft | 3 kts | 235° |
| 2026-05-05 17:21 | 52.45504 | -1.73518 | 323 ft | 5 kts | 235° |
| 2026-05-05 17:21 | 52.45483 | -1.73568 | 323 ft | 5 kts | 235° |
| 2026-05-05 17:21 | 52.45460 | -1.73622 | 323 ft | 8 kts | 236° |
| 2026-05-05 17:22 | 52.45354 | -1.73878 | 323 ft | 13 kts | 236° |
| 2026-05-05 17:22 | 52.45294 | -1.73974 | 323 ft | 11 kts | 189° |
| 2026-05-05 17:22 | 52.45229 | -1.73917 | 323 ft | 10 kts | 146° |
| 2026-05-05 17:22 | 52.45173 | -1.73855 | 323 ft | 9 kts | 146° |
| 2026-05-05 17:23 | 52.45122 | -1.73798 | 323 ft | 8 kts | 146° |
| 2026-05-05 17:23 | 52.45072 | -1.73775 | 323 ft | 7 kts | 190° |
| 2026-05-05 17:23 | 52.45039 | -1.73823 | 323 ft | 6 kts | 230° |
| 2026-05-05 17:23 | 52.44998 | -1.73845 | 323 ft | 10 kts | 171° |
| 2026-05-05 17:24 | 52.44905 | -1.73743 | 323 ft | 20 kts | 143° |
| 2026-05-05 17:24 | 52.44790 | -1.73705 | 324 ft | 16 kts | 194° |
| 2026-05-05 17:24 | 52.44689 | -1.73707 | 324 ft | 14 kts | 151° |
| 2026-05-05 17:24 | 52.44611 | -1.73618 | 324 ft | 13 kts | 144° |
| 2026-05-05 17:25 | 52.44539 | -1.73539 | 324 ft | 12 kts | 147° |
| 2026-05-05 17:25 | 52.44494 | -1.73490 | 324 ft | 11 kts | 145° |
| 2026-05-05 17:25 | 52.44405 | -1.73408 | 324 ft | 14 kts | 175° |
| 2026-05-05 17:25 | 52.44371 | -1.73437 | 323 ft | 0 kts | 225° |
| 2026-05-05 17:26 | 52.44342 | -1.73498 | 324 ft | 14 kts | 235° |
| 2026-05-05 17:26 | 52.44357 | -1.73659 | 325 ft | 12 kts | 325° |
| 2026-05-05 17:27 | 52.44361 | -1.73663 | 325 ft | 0 kts | 324° |
| 2026-05-05 17:27 | 52.44398 | -1.73705 | 325 ft | 30 kts | 326° |
| 2026-05-05 17:27 | 52.44789 | -1.74138 | 324 ft | 102 kts | 326° |
| 2026-05-05 17:27 | 52.45540 | -1.74976 | 330 ft | 156 kts | 326° |
| 2026-05-05 17:28 | 52.46485 | -1.76055 | 805 ft | 172 kts | 326° |
| 2026-05-05 17:28 | 52.47497 | -1.77212 | 1543 ft | 182 kts | 327° |
| 2026-05-05 17:28 | 52.48572 | -1.78415 | 2169 ft | 195 kts | 329° |
| 2026-05-05 17:28 | 52.49918 | -1.79134 | 2620 ft | 217 kts | 1° |
| 2026-05-05 17:29 | 52.51482 | -1.78858 | 3115 ft | 240 kts | 7° |
| 2026-05-05 17:29 | 52.53181 | -1.78484 | 3924 ft | 250 kts | 8° |
| 2026-05-05 17:29 | 52.54929 | -1.78104 | 4866 ft | 256 kts | 8° |
| 2026-05-05 17:29 | 52.56711 | -1.77726 | 5798 ft | 260 kts | 8° |
| 2026-05-05 17:30 | 52.58528 | -1.77351 | 6687 ft | 266 kts | 8° |
| 2026-05-05 17:30 | 52.60380 | -1.76973 | 7543 ft | 271 kts | 7° |
| 2026-05-05 17:30 | 52.62265 | -1.76588 | 8438 ft | 275 kts | 6° |
| 2026-05-05 17:30 | 52.64174 | -1.76201 | 9346 ft | 279 kts | 5° |
| 2026-05-05 17:31 | 52.66120 | -1.75806 | 10159 ft | 286 kts | 4° |
| 2026-05-05 17:31 | 52.68176 | -1.75389 | 10472 ft | 310 kts | 4° |
| 2026-05-05 17:31 | 52.70386 | -1.74938 | 10879 ft | 327 kts | 6° |
| 2026-05-05 17:31 | 52.72670 | -1.74460 | 11561 ft | 334 kts | 6° |
| 2026-05-05 17:32 | 52.74994 | -1.73943 | 12320 ft | 339 kts | 6° |
| 2026-05-05 17:32 | 52.77347 | -1.73402 | 13097 ft | 344 kts | 6° |
| 2026-05-05 17:32 | 52.79732 | -1.72850 | 13851 ft | 348 kts | 6° |
| 2026-05-05 17:32 | 52.82117 | -1.72301 | 14504 ft | 353 kts | 6° |
| 2026-05-05 17:33 | 52.84561 | -1.71743 | 15164 ft | 357 kts | 6° |
| 2026-05-05 17:33 | 52.87039 | -1.71180 | 15827 ft | 361 kts | 6° |
| 2026-05-05 17:33 | 52.89542 | -1.70613 | 16476 ft | 365 kts | 6° |
| 2026-05-05 17:33 | 52.92075 | -1.70038 | 17119 ft | 370 kts | 5° |
| 2026-05-05 17:34 | 52.94638 | -1.69455 | 17753 ft | 374 kts | 5° |
| 2026-05-05 17:34 | 52.97236 | -1.68861 | 18376 ft | 378 kts | 5° |
| 2026-05-05 17:34 | 52.99857 | -1.68261 | 18942 ft | 382 kts | 5° |
| 2026-05-05 17:34 | 53.02505 | -1.67676 | 19518 ft | 385 kts | 2° |
| 2026-05-05 17:35 | 53.05182 | -1.67671 | 20078 ft | 385 kts | 351° |
| 2026-05-05 17:35 | 53.07813 | -1.68524 | 20650 ft | 386 kts | 340° |
| 2026-05-05 17:35 | 53.10338 | -1.70037 | 21204 ft | 388 kts | 336° |
| 2026-05-05 17:35 | 53.12878 | -1.71622 | 21767 ft | 392 kts | 336° |
| 2026-05-05 17:36 | 53.15447 | -1.73220 | 22321 ft | 396 kts | 336° |
| 2026-05-05 17:36 | 53.18037 | -1.74828 | 22876 ft | 399 kts | 336° |
| 2026-05-05 17:36 | 53.20651 | -1.76453 | 23405 ft | 403 kts | 336° |
| 2026-05-05 17:36 | 53.23290 | -1.78094 | 23873 ft | 406 kts | 336° |
| 2026-05-05 17:37 | 53.25952 | -1.79752 | 24337 ft | 409 kts | 337° |
| 2026-05-05 17:37 | 53.28624 | -1.81418 | 24781 ft | 411 kts | 337° |
| 2026-05-05 17:37 | 53.31277 | -1.83078 | 25213 ft | 414 kts | 337° |
| 2026-05-05 17:37 | 53.33981 | -1.84771 | 25641 ft | 416 kts | 337° |
| 2026-05-05 17:38 | 53.36699 | -1.86473 | 26059 ft | 418 kts | 337° |
| 2026-05-05 17:38 | 53.39433 | -1.88186 | 26467 ft | 421 kts | 337° |
| 2026-05-05 17:38 | 53.42186 | -1.89916 | 26858 ft | 423 kts | 337° |
| 2026-05-05 17:38 | 53.44954 | -1.91656 | 27242 ft | 426 kts | 337° |
| 2026-05-05 17:39 | 53.47734 | -1.93405 | 27645 ft | 428 kts | 338° |
| 2026-05-05 17:39 | 53.50538 | -1.95170 | 27960 ft | 431 kts | 337° |
| 2026-05-05 17:39 | 53.53320 | -1.96927 | 28029 ft | 421 kts | 338° |
| 2026-05-05 17:40 | 53.58708 | -2.00349 | 28024 ft | 410 kts | 337° |
| 2026-05-05 17:40 | 53.64040 | -2.03736 | 28031 ft | 409 kts | 338° |
| 2026-05-05 17:41 | 53.69365 | -2.07118 | 28033 ft | 409 kts | 337° |
| 2026-05-05 17:41 | 53.74678 | -2.10500 | 28034 ft | 408 kts | 336° |
| 2026-05-05 17:42 | 53.79955 | -2.14025 | 28025 ft | 407 kts | 335° |
| 2026-05-05 17:42 | 53.85203 | -2.17666 | 28024 ft | 407 kts | 335° |
| 2026-05-05 17:43 | 53.90452 | -2.21290 | 28031 ft | 407 kts | 335° |
| 2026-05-05 17:43 | 53.95674 | -2.24871 | 28037 ft | 407 kts | 335° |
| 2026-05-05 17:44 | 54.00927 | -2.28485 | 28041 ft | 407 kts | 333° |
| 2026-05-05 17:44 | 54.05906 | -2.32964 | 28031 ft | 405 kts | 328° |
| 2026-05-05 17:45 | 54.10842 | -2.37588 | 28022 ft | 405 kts | 328° |
| 2026-05-05 17:45 | 54.15777 | -2.42216 | 28026 ft | 405 kts | 328° |
| 2026-05-05 17:46 | 54.20717 | -2.46860 | 28026 ft | 405 kts | 328° |
| 2026-05-05 17:46 | 54.25647 | -2.51518 | 28047 ft | 405 kts | 327° |
| 2026-05-05 17:47 | 54.30577 | -2.56187 | 28040 ft | 405 kts | 327° |
| 2026-05-05 17:47 | 54.35499 | -2.60863 | 28044 ft | 404 kts | 327° |
| 2026-05-05 17:48 | 54.40417 | -2.65552 | 28040 ft | 405 kts | 327° |
| 2026-05-05 17:48 | 54.45340 | -2.70254 | 28056 ft | 404 kts | 327° |
| 2026-05-05 17:49 | 54.50246 | -2.74931 | 28071 ft | 403 kts | 327° |
| 2026-05-05 17:49 | 54.55103 | -2.79582 | 27970 ft | 399 kts | 327° |
| 2026-05-05 17:49 | 54.57517 | -2.81905 | 27697 ft | 397 kts | 327° |
| 2026-05-05 17:50 | 54.59919 | -2.84221 | 27384 ft | 394 kts | 327° |
| 2026-05-05 17:50 | 54.62308 | -2.86530 | 27066 ft | 392 kts | 327° |
| 2026-05-05 17:50 | 54.64680 | -2.88825 | 26762 ft | 390 kts | 327° |
| 2026-05-05 17:50 | 54.67038 | -2.91106 | 26456 ft | 388 kts | 327° |
| 2026-05-05 17:51 | 54.69386 | -2.93378 | 26147 ft | 386 kts | 327° |
| 2026-05-05 17:51 | 54.71722 | -2.95643 | 25864 ft | 384 kts | 327° |
| 2026-05-05 17:51 | 54.74040 | -2.97896 | 25564 ft | 381 kts | 328° |
| 2026-05-05 17:51 | 54.76342 | -3.00137 | 25269 ft | 379 kts | 328° |
| 2026-05-05 17:52 | 54.78634 | -3.02366 | 24970 ft | 377 kts | 328° |
| 2026-05-05 17:52 | 54.80917 | -3.04588 | 24688 ft | 375 kts | 328° |
| 2026-05-05 17:52 | 54.83184 | -3.06798 | 24405 ft | 373 kts | 328° |
| 2026-05-05 17:52 | 54.85446 | -3.09006 | 24032 ft | 371 kts | 328° |
| 2026-05-05 17:53 | 54.87660 | -3.11173 | 23629 ft | 369 kts | 328° |
| 2026-05-05 17:53 | 54.89886 | -3.13361 | 23162 ft | 366 kts | 328° |
| 2026-05-05 17:53 | 54.92093 | -3.15533 | 22701 ft | 363 kts | 328° |
| 2026-05-05 17:53 | 54.94282 | -3.17688 | 22247 ft | 361 kts | 328° |
| 2026-05-05 17:54 | 54.96459 | -3.19836 | 21785 ft | 358 kts | 328° |
| 2026-05-05 17:54 | 54.98618 | -3.21964 | 21354 ft | 355 kts | 327° |
| 2026-05-05 17:54 | 55.00761 | -3.24076 | 20912 ft | 352 kts | 328° |
| 2026-05-05 17:54 | 55.02888 | -3.26172 | 20479 ft | 350 kts | 327° |
| 2026-05-05 17:55 | 55.04997 | -3.28257 | 20043 ft | 347 kts | 328° |
| 2026-05-05 17:55 | 55.07092 | -3.30330 | 19613 ft | 345 kts | 328° |
| 2026-05-05 17:55 | 55.09145 | -3.32365 | 19210 ft | 342 kts | 328° |
| 2026-05-05 17:55 | 55.11207 | -3.34409 | 18803 ft | 340 kts | 327° |
| 2026-05-05 17:56 | 55.13253 | -3.36442 | 18404 ft | 337 kts | 327° |
| 2026-05-05 17:56 | 55.15287 | -3.38470 | 17939 ft | 335 kts | 327° |
| 2026-05-05 17:56 | 55.17306 | -3.40484 | 17478 ft | 333 kts | 327° |
| 2026-05-05 17:56 | 55.19311 | -3.42483 | 17022 ft | 331 kts | 327° |
| 2026-05-05 17:57 | 55.21304 | -3.44473 | 16576 ft | 329 kts | 327° |
| 2026-05-05 17:57 | 55.23286 | -3.46460 | 16151 ft | 327 kts | 327° |
| 2026-05-05 17:57 | 55.25239 | -3.48420 | 15714 ft | 320 kts | 327° |
| 2026-05-05 17:57 | 55.27149 | -3.50331 | 15345 ft | 312 kts | 328° |
| 2026-05-05 17:58 | 55.29009 | -3.52192 | 14994 ft | 304 kts | 328° |
| 2026-05-05 17:58 | 55.30837 | -3.54020 | 14651 ft | 301 kts | 328° |
| 2026-05-05 17:58 | 55.32653 | -3.55842 | 14292 ft | 299 kts | 328° |
| 2026-05-05 17:58 | 55.34438 | -3.57637 | 13928 ft | 293 kts | 328° |
| 2026-05-05 17:59 | 55.36192 | -3.59401 | 13522 ft | 289 kts | 328° |
| 2026-05-05 17:59 | 55.37936 | -3.61156 | 13123 ft | 288 kts | 328° |
| 2026-05-05 17:59 | 55.39651 | -3.62887 | 12729 ft | 288 kts | 328° |
| 2026-05-05 17:59 | 55.41380 | -3.64633 | 12334 ft | 284 kts | 328° |
| 2026-05-05 18:00 | 55.42530 | -3.65798 | 12074 ft | 281 kts | 328° |
| 2026-05-05 18:00 | 55.44620 | -3.68389 | 11570 ft | 275 kts | 309° |
| 2026-05-05 18:00 | 55.45539 | -3.71303 | 11196 ft | 273 kts | 291° |
| 2026-05-05 18:00 | 55.46190 | -3.74432 | 10815 ft | 272 kts | 290° |
| 2026-05-05 18:01 | 55.46808 | -3.77561 | 10532 ft | 266 kts | 289° |
| 2026-05-05 18:01 | 55.47393 | -3.80543 | 10261 ft | 250 kts | 289° |
| 2026-05-05 18:01 | 55.47944 | -3.83364 | 10020 ft | 238 kts | 289° |
| 2026-05-05 18:01 | 55.48518 | -3.86075 | 9766 ft | 235 kts | 293° |
| 2026-05-05 18:02 | 55.49170 | -3.88703 | 9486 ft | 233 kts | 294° |
| 2026-05-05 18:02 | 55.49830 | -3.91298 | 9217 ft | 231 kts | 294° |
| 2026-05-05 18:02 | 55.50490 | -3.93885 | 8947 ft | 230 kts | 294° |
| 2026-05-05 18:02 | 55.51145 | -3.96461 | 8681 ft | 230 kts | 294° |
| 2026-05-05 18:03 | 55.51796 | -3.99025 | 8417 ft | 228 kts | 294° |
| 2026-05-05 18:03 | 55.52443 | -4.01579 | 8153 ft | 228 kts | 294° |
| 2026-05-05 18:03 | 55.53088 | -4.04120 | 7893 ft | 226 kts | 294° |
| 2026-05-05 18:03 | 55.53729 | -4.06653 | 7636 ft | 226 kts | 294° |
| 2026-05-05 18:04 | 55.54355 | -4.09159 | 7513 ft | 217 kts | 294° |
| 2026-05-05 18:04 | 55.54974 | -4.11628 | 7249 ft | 221 kts | 294° |
| 2026-05-05 18:04 | 55.55598 | -4.14100 | 6997 ft | 219 kts | 294° |
| 2026-05-05 18:04 | 55.56203 | -4.16511 | 6739 ft | 216 kts | 294° |
| 2026-05-05 18:05 | 55.56807 | -4.18919 | 6509 ft | 213 kts | 294° |
| 2026-05-05 18:05 | 55.57413 | -4.21307 | 6243 ft | 214 kts | 295° |
| 2026-05-05 18:05 | 55.58009 | -4.23701 | 5977 ft | 211 kts | 294° |
| 2026-05-05 18:05 | 55.58591 | -4.26067 | 5714 ft | 209 kts | 294° |
| 2026-05-05 18:06 | 55.59166 | -4.28416 | 5450 ft | 208 kts | 294° |
| 2026-05-05 18:06 | 55.59360 | -4.29207 | 5365 ft | 207 kts | 294° |
| 2026-05-05 18:06 | 55.60326 | -4.33122 | 4937 ft | 210 kts | 294° |
| 2026-05-05 18:06 | 55.60911 | -4.35487 | 4678 ft | 210 kts | 294° |
| 2026-05-05 18:07 | 55.61484 | -4.37828 | 4503 ft | 203 kts | 294° |
| 2026-05-05 18:07 | 55.61851 | -4.39348 | 4385 ft | 202 kts | 294° |
| 2026-05-05 18:07 | 55.62398 | -4.41652 | 4191 ft | 204 kts | 294° |
| 2026-05-05 18:07 | 55.62950 | -4.43952 | 4003 ft | 203 kts | 294° |
| 2026-05-05 18:08 | 55.63456 | -4.46296 | 3821 ft | 203 kts | 290° |
| 2026-05-05 18:08 | 55.63904 | -4.48667 | 3636 ft | 201 kts | 289° |
| 2026-05-05 18:08 | 55.64335 | -4.50984 | 3455 ft | 196 kts | 289° |
| 2026-05-05 18:08 | 55.64754 | -4.53264 | 3266 ft | 194 kts | 289° |
| 2026-05-05 18:09 | 55.65166 | -4.55546 | 3074 ft | 194 kts | 289° |
| 2026-05-05 18:09 | 55.65581 | -4.57828 | 2916 ft | 195 kts | 289° |
| 2026-05-05 18:09 | 55.65992 | -4.60087 | 2818 ft | 195 kts | 289° |
| 2026-05-05 18:09 | 55.66529 | -4.62272 | 2707 ft | 193 kts | 308° |
| 2026-05-05 18:10 | 55.67528 | -4.63704 | 2638 ft | 180 kts | 341° |
| 2026-05-05 18:10 | 55.68722 | -4.64306 | 2586 ft | 177 kts | 350° |
| 2026-05-05 18:10 | 55.69918 | -4.64838 | 2499 ft | 177 kts | 351° |
| 2026-05-05 18:10 | 55.71083 | -4.65358 | 2416 ft | 170 kts | 351° |
| 2026-05-05 18:11 | 55.72219 | -4.65864 | 2391 ft | 168 kts | 351° |
| 2026-05-05 18:11 | 55.73352 | -4.66285 | 2389 ft | 164 kts | 2° |
| 2026-05-05 18:11 | 55.74460 | -4.66044 | 2409 ft | 159 kts | 22° |
| 2026-05-05 18:11 | 55.75419 | -4.65139 | 2397 ft | 155 kts | 43° |
| 2026-05-05 18:12 | 55.76176 | -4.63807 | 2406 ft | 152 kts | 50° |
| 2026-05-05 18:12 | 55.76909 | -4.62449 | 2399 ft | 154 kts | 49° |
| 2026-05-05 18:12 | 55.77653 | -4.61071 | 2414 ft | 155 kts | 49° |
| 2026-05-05 18:12 | 55.78393 | -4.59701 | 2324 ft | 153 kts | 49° |
| 2026-05-05 18:13 | 55.79128 | -4.58338 | 2166 ft | 152 kts | 50° |
| 2026-05-05 18:13 | 55.79846 | -4.57008 | 1975 ft | 143 kts | 51° |
| 2026-05-05 18:13 | 55.80502 | -4.55792 | 1791 ft | 133 kts | 51° |
| 2026-05-05 18:13 | 55.81134 | -4.54616 | 1611 ft | 130 kts | 50° |
| 2026-05-05 18:14 | 55.81761 | -4.53450 | 1429 ft | 131 kts | 50° |
| 2026-05-05 18:14 | 55.82390 | -4.52281 | 1251 ft | 130 kts | 51° |
| 2026-05-05 18:14 | 55.83011 | -4.51124 | 1057 ft | 131 kts | 50° |
| 2026-05-05 18:14 | 55.83638 | -4.49957 | 860 ft | 131 kts | 47° |
| 2026-05-05 18:15 | 55.84266 | -4.48787 | 681 ft | 131 kts | 48° |
| 2026-05-05 18:15 | 55.84889 | -4.47628 | 496 ft | 129 kts | 48° |
| 2026-05-05 18:15 | 55.85499 | -4.46494 | 327 ft | 127 kts | 47° |
| 2026-05-05 18:15 | 55.86111 | -4.45359 | 167 ft | 127 kts | 47° |
| 2026-05-05 18:16 | 55.86716 | -4.44224 | 32 ft | 125 kts | 48° |
| 2026-05-05 18:16 | 55.87230 | -4.43255 | 29 ft | 83 kts | 46° |
| 2026-05-05 18:16 | 55.87524 | -4.42717 | 29 ft | 46 kts | 46° |
| 2026-05-05 18:16 | 55.87717 | -4.42346 | 29 ft | 23 kts | 46° |
| 2026-05-05 18:17 | 55.87715 | -4.42168 | 29 ft | 16 kts | 149° |
| 2026-05-05 18:17 | 55.87613 | -4.42181 | 29 ft | 15 kts | 212° |
| 2026-05-05 18:17 | 55.87541 | -4.42307 | 29 ft | 14 kts | 226° |
| 2026-05-05 18:17 | 55.87474 | -4.42433 | 29 ft | 18 kts | 227° |
| 2026-05-05 18:18 | 55.87371 | -4.42604 | 29 ft | 20 kts | 208° |
| 2026-05-05 18:18 | 55.87246 | -4.42683 | 29 ft | 18 kts | 203° |
| 2026-05-05 18:18 | 55.87132 | -4.42766 | 29 ft | 17 kts | 199° |
| 2026-05-05 18:18 | 55.87025 | -4.42831 | 29 ft | 16 kts | 202° |
| 2026-05-05 18:19 | 55.86931 | -4.42910 | 29 ft | 15 kts | 206° |
| 2026-05-05 18:19 | 55.86852 | -4.43007 | 29 ft | 13 kts | 240° |
| 2026-05-05 18:19 | 55.86827 | -4.43160 | 29 ft | 12 kts | 255° |
| 2026-05-05 18:19 | 55.86791 | -4.43285 | 29 ft | 11 kts | 205° |
| 2026-05-05 18:20 | 55.86722 | -4.43264 | 29 ft | 10 kts | 163° |
| 2026-05-05 18:20 | 55.86660 | -4.43231 | 29 ft | 9 kts | 163° |
| 2026-05-05 18:20 | 55.86615 | -4.43185 | 29 ft | 7 kts | 103° |
| 2026-05-05 18:20 | 55.86624 | -4.43116 | 29 ft | 2 kts | 72° |